CheckWX is a tool to help pilots better visualize weather data.  It is not intended as a substitute for an official pre-flight weather briefing.

13:13:27 UTC

KGUY METAR
Guymon Municipal Airport
Guymon, Oklahoma, USA
Current

20 mins ago

KGUY 171253Z AUTO 25005KT 10SM CLR 17/14 A3003 RMK AO2 SLP129 T01670139
Observed
Jun-17 @ 12:53 UTC
Wind
  • 250° at 5 KTS
Visibility
10 SM
Flight Rules
VFR
Cloud Levels
  • Clear skies
Temperature
17°C / 63°F
Dewpoint
14°C / 57°F
Humidity
83%
Altimeter
30.03" Hg
Pressure
1016.92 hPa
Previous

1 hour ago

KGUY 171153Z AUTO 00000KT 10SM CLR 14/12 A2999 RMK AO2 SLP119 T01440122 10167 20139 55004
Observed
Jun-17 @ 11:53 UTC
Visibility
10 SM
Flight Rules
VFR
Cloud Levels
  • Clear skies
Temperature
14°C / 57°F
Dewpoint
12°C / 54°F
Humidity
88%
Altimeter
29.99" Hg
Pressure
1015.62 hPa
Previous

2 hours ago

KGUY 171053Z AUTO 00000KT 10SM CLR 14/12 A2998 RMK AO2 SLP116 T01390122
Observed
Jun-17 @ 10:53 UTC
Visibility
10 SM
Flight Rules
VFR
Cloud Levels
  • Clear skies
Temperature
14°C / 57°F
Dewpoint
12°C / 54°F
Humidity
88%
Altimeter
29.98" Hg
Pressure
1015.22 hPa